EST,Max TemperatureF,Mean TemperatureF,Min TemperatureF,Max Dew PointF,MeanDew PointF,Min DewpointF,Max Humidity, Mean Humidity, Min Humidity, Max Sea Level PressureIn, Mean Sea Level PressureIn, Min Sea Level PressureIn, Max VisibilityMiles, Mean VisibilityMiles, Min VisibilityMiles, Max Wind SpeedMPH, Mean Wind SpeedMPH, Max Gust SpeedMPH,PrecipitationIn, CloudCover, Events, WindDirDegrees
2011-11-1,82,74,65,65,63,59,93,77,58,30.14,30.07,30.03,10,10,10,20,13,25,0.00,3,,36
2011-11-2,84,74,64,63,59,57,78,66,47,30.16,30.12,30.08,10,10,10,17,10,23,0.00,1,,59
2011-11-3,83,73,63,64,61,60,93,71,47,30.12,30.05,29.98,10,10,10,10,5,21,0.00,2,,25
2011-11-4,76,67,57,66,59,51,87,75,57,30.00,29.93,29.87,10,10,10,21,8,28,T,3,Rain,310
2011-11-5,77,66,55,60,55,48,84,69,54,30.07,30.01,29.97,10,10,10,20,10,26,0.00,2,,24
2011-11-6,83,72,61,65,61,58,90,75,47,30.14,30.09,30.05,10,10,9,22,10,25,0.00,4,,38
2011-11-7,81,73,64,63,62,60,93,73,51,30.15,30.10,30.04,10,10,10,17,10,23,T,2,,50
2011-11-8,83,73,63,63,61,59,93,68,46,30.09,30.04,29.99,10,10,10,16,6,22,0.00,2,,49
2011-11-9,83,74,65,64,61,56,93,70,42,30.04,29.98,29.92,10,10,10,15,7,21,0.00,1,,4
2011-11-10,79,70,60,62,58,54,90,67,43,29.98,29.94,29.89,10,10,10,16,5,20,0.00,1,,320
2011-11-11,71,63,55,60,44,35,78,55,29,30.20,30.10,29.97,10,10,10,20,11,28,0.00,1,,25
2011-11-12,79,66,53,56,53,47,83,64,42,30.25,30.21,30.17,10,10,10,18,8,24,0.00,0,,66
2011-11-13,83,71,59,61,59,55,87,68,47,30.22,30.16,30.10,10,10,10,17,7,21,0.00,0,,86
2011-11-14,87,76,64,70,66,61,93,75,51,30.15,30.08,30.01,10,10,10,16,7,23,0.00,3,,94
2011-11-15,87,80,72,73,72,70,100,85,65,30.06,30.03,29.99,10,7,0,13,5,16,0.00,5,Fog,144
2011-11-16,86,79,72,73,71,67,94,82,58,30.06,30.01,29.98,10,9,2,13,6,20,0.00,4,,173
2011-11-17,86,77,68,73,69,65,97,84,51,30.09,30.03,29.96,10,6,0,15,5,23,0.00,4,Fog,303
2011-11-18,79,73,67,66,63,57,84,73,58,30.18,30.13,30.08,10,10,10,22,12,30,T,6,Rain,62
2011-11-19,86,78,69,69,66,65,90,77,51,30.21,30.16,30.12,10,10,9,18,9,24,0.00,4,,78
2011-11-20,86,77,67,70,68,66,93,81,59,30.22,30.19,30.14,10,10,7,18,8,24,0.01,3,Rain,70
2011-11-21,86,79,71,72,70,69,93,86,61,30.23,30.16,30.09,10,9,5,15,6,20,0.11,7,Rain,82
2011-11-22,85,77,69,71,67,61,100,75,44,30.18,30.13,30.08,10,10,8,12,4,16,0.00,3,,125
2011-11-23,82,73,64,70,66,62,93,77,62,30.12,30.08,29.99,10,10,10,15,4,21,0.00,2,,245
2011-11-24,82,74,65,65,59,55,90,65,42,30.20,30.12,30.06,10,10,10,16,9,23,0.00,1,,56
2011-11-25,81,71,60,58,55,52,84,63,39,30.22,30.17,30.12,10,10,10,18,8,24,0.00,3,,74
2011-11-26,84,73,62,61,58,55,84,65,40,30.20,30.14,30.09,10,10,10,21,8,26,0.00,3,,91
2011-11-27,84,73,61,63,58,54,87,63,37,30.11,30.03,29.97,10,10,10,17,7,23,0.00,0,,113
2011-11-28,82,73,64,70,64,61,93,85,58,29.99,29.93,29.86,10,9,3,20,8,26,0.12,5,Rain,321
2011-11-29,75,67,59,61,55,50,97,68,46,30.05,30.00,29.96,10,10,6,17,6,24,0.00,3,,306
2011-11-30,72,63,53,56,53,48,87,74,59,30.10,30.03,29.99,10,10,10,16,7,21,0.00,2,,338